sensor_id;sensor_type;location;lat;lon;timestamp;P1;durP1;ratioP1;P2;durP2;ratioP2
42000;SDS011;27689;48.390;10.856;2023-04-25T00:00:31;3.90;;;3.50;;
42000;SDS011;27689;48.390;10.856;2023-04-25T00:03:14;4.38;;;3.80;;
42000;SDS011;27689;48.390;10.856;2023-04-25T00:05:59;4.35;;;3.95;;
42000;SDS011;27689;48.390;10.856;2023-04-25T00:08:47;5.15;;;3.50;;
42000;SDS011;27689;48.390;10.856;2023-04-25T00:11:31;6.45;;;3.95;;
42000;SDS011;27689;48.390;10.856;2023-04-25T00:14:15;4.87;;;4.37;;
42000;SDS011;27689;48.390;10.856;2023-04-25T00:19:43;4.35;;;3.90;;
42000;SDS011;27689;48.390;10.856;2023-04-25T00:22:29;5.80;;;4.05;;
42000;SDS011;27689;48.390;10.856;2023-04-25T00:25:13;6.03;;;4.37;;
42000;SDS011;27689;48.390;10.856;2023-04-25T00:27:57;4.05;;;3.72;;
42000;SDS011;27689;48.390;10.856;2023-04-25T00:30:41;4.57;;;4.07;;
42000;SDS011;27689;48.390;10.856;2023-04-25T00:33:26;5.18;;;4.13;;
42000;SDS011;27689;48.390;10.856;2023-04-25T00:36:10;4.63;;;4.03;;
42000;SDS011;27689;48.390;10.856;2023-04-25T00:41:39;4.38;;;3.97;;
42000;SDS011;27689;48.390;10.856;2023-04-25T00:44:23;4.80;;;3.95;;
42000;SDS011;27689;48.390;10.856;2023-04-25T00:47:08;4.88;;;4.25;;
42000;SDS011;27689;48.390;10.856;2023-04-25T00:49:52;4.67;;;4.20;;
42000;SDS011;27689;48.390;10.856;2023-04-25T00:52:40;5.03;;;3.80;;
42000;SDS011;27689;48.390;10.856;2023-04-25T00:55:26;6.00;;;4.18;;
42000;SDS011;27689;48.390;10.856;2023-04-25T00:58:10;4.67;;;4.27;;
42000;SDS011;27689;48.390;10.856;2023-04-25T01:00:54;5.47;;;4.93;;
42000;SDS011;27689;48.390;10.856;2023-04-25T01:03:39;5.20;;;4.07;;
42000;SDS011;27689;48.390;10.856;2023-04-25T01:06:24;6.22;;;4.20;;
42000;SDS011;27689;48.390;10.856;2023-04-25T01:09:08;5.07;;;4.68;;
42000;SDS011;27689;48.390;10.856;2023-04-25T01:11:53;5.72;;;4.75;;
42000;SDS011;27689;48.390;10.856;2023-04-25T01:14:37;6.10;;;4.20;;
42000;SDS011;27689;48.390;10.856;2023-04-25T01:17:21;5.70;;;4.15;;
42000;SDS011;27689;48.390;10.856;2023-04-25T01:20:05;5.32;;;4.30;;
42000;SDS011;27689;48.390;10.856;2023-04-25T01:22:51;4.82;;;4.43;;
42000;SDS011;27689;48.390;10.856;2023-04-25T01:25:36;4.50;;;4.10;;
42000;SDS011;27689;48.390;10.856;2023-04-25T01:28:20;4.80;;;4.40;;
42000;SDS011;27689;48.390;10.856;2023-04-25T01:31:05;5.10;;;4.70;;
42000;SDS011;27689;48.390;10.856;2023-04-25T01:33:49;4.53;;;3.83;;
42000;SDS011;27689;48.390;10.856;2023-04-25T01:36:34;7.03;;;5.07;;
42000;SDS011;27689;48.390;10.856;2023-04-25T01:39:18;4.85;;;4.35;;
42000;SDS011;27689;48.390;10.856;2023-04-25T01:42:03;5.13;;;4.53;;
42000;SDS011;27689;48.390;10.856;2023-04-25T01:44:47;8.18;;;4.80;;
42000;SDS011;27689;48.390;10.856;2023-04-25T01:47:31;7.07;;;4.20;;
42000;SDS011;27689;48.390;10.856;2023-04-25T01:50:16;4.43;;;4.05;;
42000;SDS011;27689;48.390;10.856;2023-04-25T01:53:02;4.95;;;4.20;;
42000;SDS011;27689;48.390;10.856;2023-04-25T01:55:46;4.80;;;4.35;;
42000;SDS011;27689;48.390;10.856;2023-04-25T01:58:30;5.10;;;4.70;;
42000;SDS011;27689;48.390;10.856;2023-04-25T02:01:14;6.70;;;4.57;;
42000;SDS011;27689;48.390;10.856;2023-04-25T02:03:58;5.22;;;4.38;;
42000;SDS011;27689;48.390;10.856;2023-04-25T02:06:42;4.97;;;4.50;;
42000;SDS011;27689;48.390;10.856;2023-04-25T02:09:26;5.07;;;4.28;;
42000;SDS011;27689;48.390;10.856;2023-04-25T02:12:10;6.23;;;4.40;;
42000;SDS011;27689;48.390;10.856;2023-04-25T02:14:54;4.68;;;4.28;;
42000;SDS011;27689;48.390;10.856;2023-04-25T02:17:38;5.75;;;4.60;;
42000;SDS011;27689;48.390;10.856;2023-04-25T02:20:23;6.50;;;4.65;;
42000;SDS011;27689;48.390;10.856;2023-04-25T02:23:08;6.22;;;4.57;;
42000;SDS011;27689;48.390;10.856;2023-04-25T02:25:52;9.40;;;4.60;;
42000;SDS011;27689;48.390;10.856;2023-04-25T02:28:36;6.63;;;4.17;;
42000;SDS011;27689;48.390;10.856;2023-04-25T02:31:20;9.63;;;4.40;;
42000;SDS011;27689;48.390;10.856;2023-04-25T02:34:04;5.40;;;4.40;;
42000;SDS011;27689;48.390;10.856;2023-04-25T02:36:48;5.60;;;4.77;;
42000;SDS011;27689;48.390;10.856;2023-04-25T02:39:34;10.07;;;4.72;;
42000;SDS011;27689;48.390;10.856;2023-04-25T02:42:18;7.50;;;4.20;;
42000;SDS011;27689;48.390;10.856;2023-04-25T02:45:02;7.70;;;4.43;;
42000;SDS011;27689;48.390;10.856;2023-04-25T02:47:46;5.25;;;4.75;;
42000;SDS011;27689;48.390;10.856;2023-04-25T02:50:30;6.40;;;4.38;;
42000;SDS011;27689;48.390;10.856;2023-04-25T02:53:14;6.55;;;4.72;;
42000;SDS011;27689;48.390;10.856;2023-04-25T02:55:58;5.50;;;3.85;;
42000;SDS011;27689;48.390;10.856;2023-04-25T02:58:42;3.97;;;3.43;;
42000;SDS011;27689;48.390;10.856;2023-04-25T03:01:26;9.07;;;4.20;;
42000;SDS011;27689;48.390;10.856;2023-04-25T03:04:10;5.63;;;4.10;;
42000;SDS011;27689;48.390;10.856;2023-04-25T03:06:54;9.05;;;4.80;;
42000;SDS011;27689;48.390;10.856;2023-04-25T03:09:38;5.45;;;4.10;;
42000;SDS011;27689;48.390;10.856;2023-04-25T03:12:22;7.68;;;4.55;;
42000;SDS011;27689;48.390;10.856;2023-04-25T03:15:06;6.28;;;4.32;;
42000;SDS011;27689;48.390;10.856;2023-04-25T03:17:51;5.50;;;4.25;;
42000;SDS011;27689;48.390;10.856;2023-04-25T03:20:34;5.95;;;3.85;;
42000;SDS011;27689;48.390;10.856;2023-04-25T03:23:18;5.63;;;4.10;;
42000;SDS011;27689;48.390;10.856;2023-04-25T03:26:02;6.70;;;4.57;;
42000;SDS011;27689;48.390;10.856;2023-04-25T03:28:46;4.28;;;3.83;;
42000;SDS011;27689;48.390;10.856;2023-04-25T03:31:30;5.07;;;3.90;;
42000;SDS011;27689;48.390;10.856;2023-04-25T03:34:14;4.60;;;3.83;;
42000;SDS011;27689;48.390;10.856;2023-04-25T03:36:58;5.75;;;4.32;;
42000;SDS011;27689;48.390;10.856;2023-04-25T03:39:43;4.38;;;3.97;;
42000;SDS011;27689;48.390;10.856;2023-04-25T03:42:27;4.63;;;3.27;;
42000;SDS011;27689;48.390;10.856;2023-04-25T03:45:11;5.35;;;4.03;;
42000;SDS011;27689;48.390;10.856;2023-04-25T03:47:55;6.78;;;5.15;;
42000;SDS011;27689;48.390;10.856;2023-04-25T03:50:39;7.10;;;5.55;;
42000;SDS011;27689;48.390;10.856;2023-04-25T03:53:23;6.47;;;4.50;;
42000;SDS011;27689;48.390;10.856;2023-04-25T03:56:07;5.73;;;4.53;;
42000;SDS011;27689;48.390;10.856;2023-04-25T03:58:51;6.73;;;4.00;;
42000;SDS011;27689;48.390;10.856;2023-04-25T04:01:35;4.80;;;4.03;;
42000;SDS011;27689;48.390;10.856;2023-04-25T04:04:19;4.65;;;3.95;;
42000;SDS011;27689;48.390;10.856;2023-04-25T04:07:03;5.93;;;4.40;;
42000;SDS011;27689;48.390;10.856;2023-04-25T04:09:47;6.32;;;3.95;;
42000;SDS011;27689;48.390;10.856;2023-04-25T04:12:31;6.53;;;3.63;;
42000;SDS011;27689;48.390;10.856;2023-04-25T04:15:15;4.97;;;3.67;;
42000;SDS011;27689;48.390;10.856;2023-04-25T04:17:59;5.97;;;3.25;;
42000;SDS011;27689;48.390;10.856;2023-04-25T04:20:46;5.30;;;3.30;;
42000;SDS011;27689;48.390;10.856;2023-04-25T04:23:30;4.37;;;3.57;;
42000;SDS011;27689;48.390;10.856;2023-04-25T04:26:14;5.40;;;3.20;;
42000;SDS011;27689;48.390;10.856;2023-04-25T04:28:59;4.50;;;3.38;;
42000;SDS011;27689;48.390;10.856;2023-04-25T04:31:43;5.63;;;3.20;;
42000;SDS011;27689;48.390;10.856;2023-04-25T04:34:28;5.20;;;3.58;;
42000;SDS011;27689;48.390;10.856;2023-04-25T04:37:12;4.20;;;3.38;;
42000;SDS011;27689;48.390;10.856;2023-04-25T04:39:56;6.17;;;3.23;;
42000;SDS011;27689;48.390;10.856;2023-04-25T04:42:41;5.43;;;3.60;;
42000;SDS011;27689;48.390;10.856;2023-04-25T04:45:25;4.72;;;3.45;;
42000;SDS011;27689;48.390;10.856;2023-04-25T04:48:11;4.70;;;3.42;;
42000;SDS011;27689;48.390;10.856;2023-04-25T04:50:57;3.35;;;2.80;;
42000;SDS011;27689;48.390;10.856;2023-04-25T04:53:42;4.68;;;3.92;;
42000;SDS011;27689;48.390;10.856;2023-04-25T04:56:25;4.93;;;3.45;;
42000;SDS011;27689;48.390;10.856;2023-04-25T04:59:10;4.78;;;3.15;;
42000;SDS011;27689;48.390;10.856;2023-04-25T05:01:54;3.88;;;3.30;;
42000;SDS011;27689;48.390;10.856;2023-04-25T05:04:38;4.05;;;3.22;;
42000;SDS011;27689;48.390;10.856;2023-04-25T05:07:24;5.47;;;3.40;;
42000;SDS011;27689;48.390;10.856;2023-04-25T05:10:08;3.72;;;3.33;;
42000;SDS011;27689;48.390;10.856;2023-04-25T05:12:52;6.43;;;3.75;;
42000;SDS011;27689;48.390;10.856;2023-04-25T05:15:36;5.53;;;3.75;;
42000;SDS011;27689;48.390;10.856;2023-04-25T05:18:21;3.63;;;3.25;;
42000;SDS011;27689;48.390;10.856;2023-04-25T05:21:05;4.18;;;3.40;;
42000;SDS011;27689;48.390;10.856;2023-04-25T05:23:48;5.03;;;3.25;;
42000;SDS011;27689;48.390;10.856;2023-04-25T05:26:32;4.03;;;3.63;;
42000;SDS011;27689;48.390;10.856;2023-04-25T05:29:16;6.23;;;3.90;;
42000;SDS011;27689;48.390;10.856;2023-04-25T05:32:00;8.38;;;4.00;;
42000;SDS011;27689;48.390;10.856;2023-04-25T05:34:44;8.82;;;3.67;;
42000;SDS011;27689;48.390;10.856;2023-04-25T05:37:29;5.68;;;4.07;;
42000;SDS011;27689;48.390;10.856;2023-04-25T05:40:14;6.80;;;4.25;;
42000;SDS011;27689;48.390;10.856;2023-04-25T05:42:58;5.40;;;3.58;;
42000;SDS011;27689;48.390;10.856;2023-04-25T05:45:42;4.43;;;3.60;;
42000;SDS011;27689;48.390;10.856;2023-04-25T05:48:26;4.75;;;3.67;;
42000;SDS011;27689;48.390;10.856;2023-04-25T05:51:10;5.43;;;3.70;;
42000;SDS011;27689;48.390;10.856;2023-04-25T05:53:54;8.43;;;3.90;;
42000;SDS011;27689;48.390;10.856;2023-04-25T05:56:38;6.03;;;4.47;;
42000;SDS011;27689;48.390;10.856;2023-04-25T05:59:22;5.67;;;4.03;;
42000;SDS011;27689;48.390;10.856;2023-04-25T06:02:06;4.47;;;3.33;;
42000;SDS011;27689;48.390;10.856;2023-04-25T06:04:50;4.72;;;3.38;;
42000;SDS011;27689;48.390;10.856;2023-04-25T06:07:34;5.45;;;3.72;;
42000;SDS011;27689;48.390;10.856;2023-04-25T06:10:18;6.73;;;4.17;;
42000;SDS011;27689;48.390;10.856;2023-04-25T06:13:02;4.88;;;4.05;;
42000;SDS011;27689;48.390;10.856;2023-04-25T06:15:48;8.05;;;4.30;;
42000;SDS011;27689;48.390;10.856;2023-04-25T06:18:31;7.00;;;4.00;;
42000;SDS011;27689;48.390;10.856;2023-04-25T06:21:15;5.47;;;4.47;;
42000;SDS011;27689;48.390;10.856;2023-04-25T06:23:59;7.47;;;4.70;;
42000;SDS011;27689;48.390;10.856;2023-04-25T06:26:43;5.53;;;3.75;;
42000;SDS011;27689;48.390;10.856;2023-04-25T06:29:28;6.97;;;3.90;;
42000;SDS011;27689;48.390;10.856;2023-04-25T06:32:11;5.33;;;3.93;;
42000;SDS011;27689;48.390;10.856;2023-04-25T06:34:55;7.20;;;4.05;;
42000;SDS011;27689;48.390;10.856;2023-04-25T06:37:40;4.93;;;3.60;;
42000;SDS011;27689;48.390;10.856;2023-04-25T06:40:24;4.63;;;3.13;;
42000;SDS011;27689;48.390;10.856;2023-04-25T06:43:08;5.70;;;3.70;;
42000;SDS011;27689;48.390;10.856;2023-04-25T06:45:52;6.07;;;3.63;;
42000;SDS011;27689;48.390;10.856;2023-04-25T06:48:36;6.38;;;3.78;;
42000;SDS011;27689;48.390;10.856;2023-04-25T06:51:21;4.22;;;3.63;;
42000;SDS011;27689;48.390;10.856;2023-04-25T06:54:05;4.53;;;3.03;;
42000;SDS011;27689;48.390;10.856;2023-04-25T06:56:49;6.57;;;3.20;;
42000;SDS011;27689;48.390;10.856;2023-04-25T06:59:33;3.67;;;3.07;;
42000;SDS011;27689;48.390;10.856;2023-04-25T07:02:18;4.82;;;3.03;;
42000;SDS011;27689;48.390;10.856;2023-04-25T07:05:02;4.22;;;3.15;;
42000;SDS011;27689;48.390;10.856;2023-04-25T07:07:47;5.10;;;3.33;;
42000;SDS011;27689;48.390;10.856;2023-04-25T07:10:31;5.95;;;3.40;;
42000;SDS011;27689;48.390;10.856;2023-04-25T07:13:15;5.20;;;3.07;;
42000;SDS011;27689;48.390;10.856;2023-04-25T07:15:59;5.93;;;3.33;;
42000;SDS011;27689;48.390;10.856;2023-04-25T07:18:43;5.80;;;3.33;;
42000;SDS011;27689;48.390;10.856;2023-04-25T07:21:28;5.80;;;3.58;;
42000;SDS011;27689;48.390;10.856;2023-04-25T07:24:12;8.83;;;3.33;;
42000;SDS011;27689;48.390;10.856;2023-04-25T07:26:55;4.83;;;3.13;;
42000;SDS011;27689;48.390;10.856;2023-04-25T07:29:40;5.82;;;2.92;;
42000;SDS011;27689;48.390;10.856;2023-04-25T07:32:24;6.73;;;3.07;;
42000;SDS011;27689;48.390;10.856;2023-04-25T07:35:09;3.70;;;2.65;;
42000;SDS011;27689;48.390;10.856;2023-04-25T07:37:53;4.85;;;2.67;;
42000;SDS011;27689;48.390;10.856;2023-04-25T07:40:37;4.00;;;2.53;;
42000;SDS011;27689;48.390;10.856;2023-04-25T07:43:21;2.95;;;2.58;;
42000;SDS011;27689;48.390;10.856;2023-04-25T07:46:05;3.47;;;2.80;;
42000;SDS011;27689;48.390;10.856;2023-04-25T07:48:50;3.80;;;2.65;;
42000;SDS011;27689;48.390;10.856;2023-04-25T07:51:34;6.75;;;2.60;;
42000;SDS011;27689;48.390;10.856;2023-04-25T07:54:18;3.05;;;2.20;;
42000;SDS011;27689;48.390;10.856;2023-04-25T07:57:02;3.73;;;2.53;;
42000;SDS011;27689;48.390;10.856;2023-04-25T07:59:46;4.45;;;3.17;;
42000;SDS011;27689;48.390;10.856;2023-04-25T08:02:30;4.80;;;2.50;;
42000;SDS011;27689;48.390;10.856;2023-04-25T08:05:14;3.33;;;2.30;;
42000;SDS011;27689;48.390;10.856;2023-04-25T08:07:58;2.97;;;2.42;;
42000;SDS011;27689;48.390;10.856;2023-04-25T08:10:42;3.78;;;2.67;;
42000;SDS011;27689;48.390;10.856;2023-04-25T08:13:26;4.67;;;2.50;;
42000;SDS011;27689;48.390;10.856;2023-04-25T08:16:10;5.35;;;2.65;;
42000;SDS011;27689;48.390;10.856;2023-04-25T08:18:54;4.63;;;2.13;;
42000;SDS011;27689;48.390;10.856;2023-04-25T08:21:38;5.13;;;2.20;;
42000;SDS011;27689;48.390;10.856;2023-04-25T08:24:22;3.60;;;2.05;;
42000;SDS011;27689;48.390;10.856;2023-04-25T08:27:06;5.00;;;2.38;;
42000;SDS011;27689;48.390;10.856;2023-04-25T08:29:51;4.18;;;2.28;;
42000;SDS011;27689;48.390;10.856;2023-04-25T08:32:35;4.03;;;2.40;;
42000;SDS011;27689;48.390;10.856;2023-04-25T08:35:21;6.45;;;2.47;;
42000;SDS011;27689;48.390;10.856;2023-04-25T08:38:05;4.18;;;2.10;;
42000;SDS011;27689;48.390;10.856;2023-04-25T08:40:50;3.13;;;2.08;;
42000;SDS011;27689;48.390;10.856;2023-04-25T08:43:37;3.17;;;2.08;;
42000;SDS011;27689;48.390;10.856;2023-04-25T08:46:24;5.10;;;2.15;;
42000;SDS011;27689;48.390;10.856;2023-04-25T08:49:09;2.70;;;2.03;;
42000;SDS011;27689;48.390;10.856;2023-04-25T08:51:53;3.83;;;2.28;;
42000;SDS011;27689;48.390;10.856;2023-04-25T08:54:43;3.53;;;2.17;;
42000;SDS011;27689;48.390;10.856;2023-04-25T08:57:32;2.85;;;2.10;;
42000;SDS011;27689;48.390;10.856;2023-04-25T09:00:17;5.00;;;2.40;;
42000;SDS011;27689;48.390;10.856;2023-04-25T09:03:02;4.93;;;2.10;;
42000;SDS011;27689;48.390;10.856;2023-04-25T09:05:47;3.47;;;2.22;;
42000;SDS011;27689;48.390;10.856;2023-04-25T09:08:31;4.23;;;2.30;;
42000;SDS011;27689;48.390;10.856;2023-04-25T09:11:15;3.63;;;2.33;;
42000;SDS011;27689;48.390;10.856;2023-04-25T09:19:40;4.20;;;2.40;;
42000;SDS011;27689;48.390;10.856;2023-04-25T09:22:25;3.08;;;2.20;;
42000;SDS011;27689;48.390;10.856;2023-04-25T09:25:09;3.95;;;2.58;;
42000;SDS011;27689;48.390;10.856;2023-04-25T09:27:54;3.83;;;2.22;;
42000;SDS011;27689;48.390;10.856;2023-04-25T09:33:27;8.02;;;2.42;;
42000;SDS011;27689;48.390;10.856;2023-04-25T09:36:13;3.38;;;2.22;;
42000;SDS011;27689;48.390;10.856;2023-04-25T09:38:57;4.15;;;2.28;;
42000;SDS011;27689;48.390;10.856;2023-04-25T09:41:43;4.50;;;2.60;;
42000;SDS011;27689;48.390;10.856;2023-04-25T09:44:27;4.00;;;2.67;;
42000;SDS011;27689;48.390;10.856;2023-04-25T09:47:14;4.40;;;2.83;;
42000;SDS011;27689;48.390;10.856;2023-04-25T09:50:00;5.60;;;2.67;;
42000;SDS011;27689;48.390;10.856;2023-04-25T09:52:44;3.15;;;2.33;;
42000;SDS011;27689;48.390;10.856;2023-04-25T09:55:27;4.78;;;2.17;;
42000;SDS011;27689;48.390;10.856;2023-04-25T09:58:12;6.32;;;2.53;;
42000;SDS011;27689;48.390;10.856;2023-04-25T10:01:04;5.28;;;2.47;;
42000;SDS011;27689;48.390;10.856;2023-04-25T10:03:49;2.17;;;1.98;;
42000;SDS011;27689;48.390;10.856;2023-04-25T10:06:34;3.40;;;1.75;;
42000;SDS011;27689;48.390;10.856;2023-04-25T10:09:20;1.50;;;1.33;;
42000;SDS011;27689;48.390;10.856;2023-04-25T10:12:04;2.03;;;1.80;;
42000;SDS011;27689;48.390;10.856;2023-04-25T10:14:49;2.88;;;1.60;;
42000;SDS011;27689;48.390;10.856;2023-04-25T10:17:34;1.85;;;1.58;;
42000;SDS011;27689;48.390;10.856;2023-04-25T10:20:19;3.00;;;2.00;;
42000;SDS011;27689;48.390;10.856;2023-04-25T10:23:13;4.38;;;2.10;;
42000;SDS011;27689;48.390;10.856;2023-04-25T10:25:59;4.97;;;1.90;;
42000;SDS011;27689;48.390;10.856;2023-04-25T10:28:57;1.80;;;1.70;;
42000;SDS011;27689;48.390;10.856;2023-04-25T10:31:46;3.20;;;1.92;;
42000;SDS011;27689;48.390;10.856;2023-04-25T10:34:41;3.55;;;1.90;;
42000;SDS011;27689;48.390;10.856;2023-04-25T10:37:27;2.10;;;1.90;;
42000;SDS011;27689;48.390;10.856;2023-04-25T10:40:11;2.93;;;1.80;;
42000;SDS011;27689;48.390;10.856;2023-04-25T10:42:55;4.30;;;1.67;;
42000;SDS011;27689;48.390;10.856;2023-04-25T10:46:15;1.67;;;1.55;;
42000;SDS011;27689;48.390;10.856;2023-04-25T10:49:00;1.88;;;1.58;;
42000;SDS011;27689;48.390;10.856;2023-04-25T10:51:45;1.95;;;1.85;;
42000;SDS011;27689;48.390;10.856;2023-04-25T10:54:29;3.63;;;1.80;;
42000;SDS011;27689;48.390;10.856;2023-04-25T11:00:14;2.85;;;2.10;;
42000;SDS011;27689;48.390;10.856;2023-04-25T11:03:02;2.33;;;2.13;;
42000;SDS011;27689;48.390;10.856;2023-04-25T11:05:46;3.05;;;2.40;;
42000;SDS011;27689;48.390;10.856;2023-04-25T11:08:37;2.80;;;2.50;;
42000;SDS011;27689;48.390;10.856;2023-04-25T11:11:31;2.60;;;2.40;;
42000;SDS011;27689;48.390;10.856;2023-04-25T11:14:15;2.88;;;2.38;;
42000;SDS011;27689;48.390;10.856;2023-04-25T11:16:59;3.08;;;2.63;;
42000;SDS011;27689;48.390;10.856;2023-04-25T11:19:44;3.22;;;2.45;;
42000;SDS011;27689;48.390;10.856;2023-04-25T11:22:32;4.07;;;2.78;;
42000;SDS011;27689;48.390;10.856;2023-04-25T11:25:17;5.80;;;3.00;;
42000;SDS011;27689;48.390;10.856;2023-04-25T11:28:01;4.40;;;2.90;;
42000;SDS011;27689;48.390;10.856;2023-04-25T11:30:47;4.70;;;2.95;;
42000;SDS011;27689;48.390;10.856;2023-04-25T11:33:34;7.28;;;2.80;;
42000;SDS011;27689;48.390;10.856;2023-04-25T11:36:19;3.70;;;2.70;;
42000;SDS011;27689;48.390;10.856;2023-04-25T11:39:03;3.25;;;2.80;;
42000;SDS011;27689;48.390;10.856;2023-04-25T11:41:47;2.80;;;2.60;;
42000;SDS011;27689;48.390;10.856;2023-04-25T11:44:31;3.00;;;2.60;;
42000;SDS011;27689;48.390;10.856;2023-04-25T11:47:15;5.85;;;2.90;;
42000;SDS011;27689;48.390;10.856;2023-04-25T11:50:00;2.47;;;2.28;;
42000;SDS011;27689;48.390;10.856;2023-04-25T11:52:47;2.63;;;2.30;;
42000;SDS011;27689;48.390;10.856;2023-04-25T11:55:31;2.60;;;2.40;;
42000;SDS011;27689;48.390;10.856;2023-04-25T11:58:15;2.20;;;2.00;;
42000;SDS011;27689;48.390;10.856;2023-04-25T12:00:59;2.70;;;2.50;;
42000;SDS011;27689;48.390;10.856;2023-04-25T12:03:46;4.47;;;2.45;;
42000;SDS011;27689;48.390;10.856;2023-04-25T12:06:30;3.65;;;2.70;;
42000;SDS011;27689;48.390;10.856;2023-04-25T12:09:15;3.08;;;2.88;;
42000;SDS011;27689;48.390;10.856;2023-04-25T12:12:02;3.10;;;2.80;;
42000;SDS011;27689;48.390;10.856;2023-04-25T12:14:49;4.05;;;3.08;;
42000;SDS011;27689;48.390;10.856;2023-04-25T12:17:33;2.80;;;2.60;;
42000;SDS011;27689;48.390;10.856;2023-04-25T12:20:18;3.80;;;2.88;;
42000;SDS011;27689;48.390;10.856;2023-04-25T12:23:07;2.80;;;2.60;;
42000;SDS011;27689;48.390;10.856;2023-04-25T12:25:51;3.38;;;2.28;;
42000;SDS011;27689;48.390;10.856;2023-04-25T12:28:35;3.53;;;2.13;;
42000;SDS011;27689;48.390;10.856;2023-04-25T12:31:19;2.50;;;2.30;;
42000;SDS011;27689;48.390;10.856;2023-04-25T12:34:03;1.70;;;1.60;;
42000;SDS011;27689;48.390;10.856;2023-04-25T12:36:47;1.80;;;1.60;;
42000;SDS011;27689;48.390;10.856;2023-04-25T12:39:32;2.13;;;1.50;;
42000;SDS011;27689;48.390;10.856;2023-04-25T12:42:16;2.13;;;2.00;;
42000;SDS011;27689;48.390;10.856;2023-04-25T12:45:00;1.77;;;1.67;;
42000;SDS011;27689;48.390;10.856;2023-04-25T12:47:44;2.13;;;1.97;;
42000;SDS011;27689;48.390;10.856;2023-04-25T12:50:28;2.22;;;2.05;;
42000;SDS011;27689;48.390;10.856;2023-04-25T12:53:12;1.53;;;1.43;;
42000;SDS011;27689;48.390;10.856;2023-04-25T12:55:56;2.05;;;1.85;;
42000;SDS011;27689;48.390;10.856;2023-04-25T12:58:40;2.00;;;1.90;;
42000;SDS011;27689;48.390;10.856;2023-04-25T13:01:25;2.15;;;1.95;;
42000;SDS011;27689;48.390;10.856;2023-04-25T13:04:09;1.77;;;1.67;;
42000;SDS011;27689;48.390;10.856;2023-04-25T13:06:53;2.35;;;2.15;;
42000;SDS011;27689;48.390;10.856;2023-04-25T13:09:37;2.72;;;2.03;;
42000;SDS011;27689;48.390;10.856;2023-04-25T13:12:22;2.20;;;2.00;;
42000;SDS011;27689;48.390;10.856;2023-04-25T13:15:06;2.43;;;2.23;;
42000;SDS011;27689;48.390;10.856;2023-04-25T13:17:52;2.35;;;2.15;;
42000;SDS011;27689;48.390;10.856;2023-04-25T13:20:36;2.42;;;2.22;;
42000;SDS011;27689;48.390;10.856;2023-04-25T13:23:20;2.50;;;2.30;;
42000;SDS011;27689;48.390;10.856;2023-04-25T13:26:05;3.17;;;2.17;;
42000;SDS011;27689;48.390;10.856;2023-04-25T13:28:49;2.58;;;2.35;;
42000;SDS011;27689;48.390;10.856;2023-04-25T13:31:32;3.45;;;3.05;;
42000;SDS011;27689;48.390;10.856;2023-04-25T13:34:17;2.70;;;2.50;;
42000;SDS011;27689;48.390;10.856;2023-04-25T13:37:01;3.53;;;3.23;;
42000;SDS011;27689;48.390;10.856;2023-04-25T13:39:45;3.20;;;2.60;;
42000;SDS011;27689;48.390;10.856;2023-04-25T13:42:29;3.77;;;3.30;;
42000;SDS011;27689;48.390;10.856;2023-04-25T13:45:13;3.45;;;2.92;;
42000;SDS011;27689;48.390;10.856;2023-04-25T13:47:57;3.10;;;2.90;;
42000;SDS011;27689;48.390;10.856;2023-04-25T13:50:41;3.30;;;3.00;;
42000;SDS011;27689;48.390;10.856;2023-04-25T13:53:25;4.43;;;4.00;;
42000;SDS011;27689;48.390;10.856;2023-04-25T13:56:09;4.32;;;3.92;;
42000;SDS011;27689;48.390;10.856;2023-04-25T13:58:55;5.32;;;4.68;;
42000;SDS011;27689;48.390;10.856;2023-04-25T14:01:40;4.78;;;4.15;;
42000;SDS011;27689;48.390;10.856;2023-04-25T14:04:25;3.90;;;3.50;;
42000;SDS011;27689;48.390;10.856;2023-04-25T14:07:09;5.18;;;4.43;;
42000;SDS011;27689;48.390;10.856;2023-04-25T14:12:40;2.80;;;2.60;;
42000;SDS011;27689;48.390;10.856;2023-04-25T14:15:24;3.37;;;3.07;;
42000;SDS011;27689;48.390;10.856;2023-04-25T14:18:09;3.97;;;2.92;;
42000;SDS011;27689;48.390;10.856;2023-04-25T14:20:53;4.22;;;3.70;;
42000;SDS011;27689;48.390;10.856;2023-04-25T14:23:37;2.95;;;2.72;;
42000;SDS011;27689;48.390;10.856;2023-04-25T14:26:21;3.10;;;2.80;;
42000;SDS011;27689;48.390;10.856;2023-04-25T14:29:05;3.10;;;2.80;;
42000;SDS011;27689;48.390;10.856;2023-04-25T14:31:50;4.53;;;2.95;;
42000;SDS011;27689;48.390;10.856;2023-04-25T14:34:34;8.48;;;6.28;;
42000;SDS011;27689;48.390;10.856;2023-04-25T14:37:18;4.50;;;4.10;;
42000;SDS011;27689;48.390;10.856;2023-04-25T14:40:02;4.38;;;3.97;;
42000;SDS011;27689;48.390;10.856;2023-04-25T14:42:46;4.25;;;3.92;;
42000;SDS011;27689;48.390;10.856;2023-04-25T14:45:30;5.03;;;4.40;;
42000;SDS011;27689;48.390;10.856;2023-04-25T14:48:15;4.93;;;4.40;;
42000;SDS011;27689;48.390;10.856;2023-04-25T14:51:00;4.30;;;3.90;;
42000;SDS011;27689;48.390;10.856;2023-04-25T14:53:44;4.93;;;4.43;;
42000;SDS011;27689;48.390;10.856;2023-04-25T14:56:28;4.38;;;3.97;;
42000;SDS011;27689;48.390;10.856;2023-04-25T14:59:12;4.80;;;4.30;;
42000;SDS011;27689;48.390;10.856;2023-04-25T15:01:56;4.60;;;3.97;;
42000;SDS011;27689;48.390;10.856;2023-04-25T15:04:40;4.20;;;3.80;;
42000;SDS011;27689;48.390;10.856;2023-04-25T15:07:24;5.47;;;4.15;;
42000;SDS011;27689;48.390;10.856;2023-04-25T15:10:09;4.00;;;3.20;;
42000;SDS011;27689;48.390;10.856;2023-04-25T15:12:59;4.13;;;3.72;;
42000;SDS011;27689;48.390;10.856;2023-04-25T15:15:43;3.93;;;3.63;;
42000;SDS011;27689;48.390;10.856;2023-04-25T15:18:26;4.10;;;3.58;;
42000;SDS011;27689;48.390;10.856;2023-04-25T15:21:10;4.72;;;3.72;;
42000;SDS011;27689;48.390;10.856;2023-04-25T15:23:54;4.07;;;3.30;;
42000;SDS011;27689;48.390;10.856;2023-04-25T15:26:38;6.27;;;3.70;;
42000;SDS011;27689;48.390;10.856;2023-04-25T15:29:23;4.70;;;3.70;;
42000;SDS011;27689;48.390;10.856;2023-04-25T15:32:06;4.30;;;3.73;;
42000;SDS011;27689;48.390;10.856;2023-04-25T15:34:50;3.80;;;3.30;;
42000;SDS011;27689;48.390;10.856;2023-04-25T15:37:35;3.70;;;3.30;;
42000;SDS011;27689;48.390;10.856;2023-04-25T15:40:19;4.38;;;3.42;;
42000;SDS011;27689;48.390;10.856;2023-04-25T15:43:03;5.43;;;3.72;;
42000;SDS011;27689;48.390;10.856;2023-04-25T15:45:47;4.40;;;4.00;;
42000;SDS011;27689;48.390;10.856;2023-04-25T15:48:32;6.65;;;5.03;;
42000;SDS011;27689;48.390;10.856;2023-04-25T15:51:16;4.30;;;3.90;;
42000;SDS011;27689;48.390;10.856;2023-04-25T15:54:00;4.10;;;3.67;;
42000;SDS011;27689;48.390;10.856;2023-04-25T15:56:44;5.13;;;4.15;;
42000;SDS011;27689;48.390;10.856;2023-04-25T15:59:29;5.85;;;4.68;;
42000;SDS011;27689;48.390;10.856;2023-04-25T16:02:13;5.22;;;4.10;;
42000;SDS011;27689;48.390;10.856;2023-04-25T16:04:57;4.80;;;4.15;;
42000;SDS011;27689;48.390;10.856;2023-04-25T16:07:42;5.33;;;4.40;;
42000;SDS011;27689;48.390;10.856;2023-04-25T16:10:28;5.75;;;3.95;;
42000;SDS011;27689;48.390;10.856;2023-04-25T16:13:11;6.97;;;6.27;;
42000;SDS011;27689;48.390;10.856;2023-04-25T16:15:56;6.37;;;4.53;;
42000;SDS011;27689;48.390;10.856;2023-04-25T16:18:40;5.80;;;3.78;;
42000;SDS011;27689;48.390;10.856;2023-04-25T16:21:24;4.00;;;3.57;;
42000;SDS011;27689;48.390;10.856;2023-04-25T16:24:11;4.15;;;2.95;;
42000;SDS011;27689;48.390;10.856;2023-04-25T16:26:55;4.60;;;3.78;;
42000;SDS011;27689;48.390;10.856;2023-04-25T16:29:39;3.93;;;3.53;;
42000;SDS011;27689;48.390;10.856;2023-04-25T16:32:24;4.72;;;3.20;;
42000;SDS011;27689;48.390;10.856;2023-04-25T16:35:07;3.90;;;2.95;;